Time;durP1;ratioP1;P1;durP2;ratioP2;P2;SDS_P1;SDS_P2;PMS_P1;PMS_P2;Temp;Humidity;BMP_temperature;BMP_pressure;BME280_temperature;BME280_humidity;BME280_pressure;Samples;Min_cycle;Max_cycle;Signal;HPM_P1;HPM_P2
2021/04/28 00:01:26;;;;;;;10.10;3.90;;;8.10;75.10;;;9.21;43.10;100738.19;5074541;28;20219;-70
2021/04/28 00:03:53;;;;;;;10.80;4.05;;;8.10;75.20;;;9.18;43.25;100738.31;5076127;28;20200;-69
2021/04/28 00:06:20;;;;;;;10.25;4.05;;;8.10;75.20;;;9.13;43.24;100736.72;5076193;28;20257;-69
2021/04/28 00:08:46;;;;;;;13.88;4.20;;;8.00;75.20;;;9.12;43.45;100732.44;5077678;28;20211;-69
2021/04/28 00:11:13;;;;;;;9.35;3.92;;;8.00;75.30;;;9.11;43.33;100736.78;5076755;28;20215;-69
2021/04/28 00:13:39;;;;;;;12.60;4.40;;;7.90;75.30;;;9.09;43.38;100725.56;5078172;28;20245;-69
2021/04/28 00:16:06;;;;;;;10.07;3.78;;;7.90;75.30;;;9.07;43.31;100729.97;5069171;28;20185;-69
2021/04/28 00:18:33;;;;;;;12.77;4.35;;;7.90;75.40;;;9.06;43.49;100725.63;5077282;28;20535;-70
2021/04/28 00:20:59;;;;;;;11.27;4.00;;;7.90;75.30;;;9.04;43.36;100724.84;5082317;28;20238;-70
2021/04/28 00:23:26;;;;;;;12.20;4.57;;;7.90;75.30;;;9.03;43.82;100728.34;5083429;28;20184;-69
2021/04/28 00:25:52;;;;;;;12.52;3.97;;;7.90;75.40;;;9.01;43.57;100714.47;5082538;28;20184;-69
2021/04/28 00:28:19;;;;;;;11.23;4.15;;;7.90;75.40;;;8.97;43.60;100712.88;5082700;28;20208;-69
2021/04/28 00:30:45;;;;;;;12.23;4.40;;;7.90;75.40;;;8.98;43.56;100718.94;5081944;28;20204;-69
2021/04/28 00:33:12;;;;;;;11.68;4.30;;;7.90;75.40;;;8.97;43.54;100704.19;5082379;28;20193;-70
2021/04/28 00:35:38;;;;;;;11.25;4.70;;;7.90;75.40;;;8.97;43.83;100707.66;5082451;28;20204;-69
2021/04/28 00:38:05;;;;;;;11.98;4.28;;;7.80;75.70;;;8.96;43.54;100705.09;5081114;28;20283;-70
2021/04/28 00:40:39;;;;;;;10.45;4.03;;;7.80;75.60;;;8.95;43.91;100708.59;5080077;28;20212;-70
2021/04/28 00:43:07;;;;;;;11.23;4.18;;;7.80;75.60;;;8.93;43.80;100705.19;5079779;28;20613;-69
2021/04/28 00:45:34;;;;;;;13.52;4.18;;;7.80;75.80;;;8.91;43.53;100702.63;5081133;28;20194;-70
2021/04/28 00:48:03;;;;;;;12.43;3.72;;;7.80;75.90;;;8.93;43.80;100699.97;5077594;28;20208;-70
2021/04/28 00:50:35;;;;;;;12.77;4.28;;;7.70;75.90;;;8.88;43.83;100695.75;5076815;28;20284;-69
2021/04/28 00:53:03;;;;;;;11.32;4.20;;;7.70;75.90;;;8.85;43.90;100689.78;5079722;28;20200;-69
2021/04/28 00:55:30;;;;;;;11.10;4.20;;;7.70;76.10;;;8.86;43.75;100691.47;5082412;28;20259;-70
2021/04/28 00:57:57;;;;;;;11.57;4.28;;;7.70;76.10;;;8.84;44.17;100688.91;5077925;28;20205;-70
2021/04/28 01:00:26;;;;;;;11.20;4.03;;;7.70;76.10;;;8.82;44.24;100690.72;5080282;28;20263;-71
2021/04/28 01:02:53;;;;;;;12.10;4.60;;;7.60;76.10;;;8.78;43.81;100689.13;5085647;28;20230;-69
2021/04/28 01:05:20;;;;;;;11.07;4.53;;;7.60;76.20;;;8.75;44.26;100680.53;5082286;28;20199;-69
2021/04/28 01:07:50;;;;;;;11.65;4.35;;;7.60;76.10;;;8.70;44.24;100677.22;5080516;28;20220;-70
2021/04/28 01:10:21;;;;;;;12.32;4.53;;;7.60;76.30;;;8.66;44.11;100675.56;5079766;28;20298;-70
2021/04/28 01:12:48;;;;;;;12.70;4.38;;;7.50;76.30;;;8.65;44.08;100679.09;5080156;28;20191;-70
2021/04/28 01:15:21;;;;;;;12.60;4.10;;;7.50;76.40;;;8.65;44.07;100673.88;5077831;28;20188;-70
2021/04/28 01:17:59;;;;;;;12.05;4.57;;;7.50;76.40;;;8.60;44.27;100660.13;5078349;28;20656;-69
2021/04/28 01:20:27;;;;;;;12.80;4.50;;;7.50;76.40;;;8.57;44.50;100675.88;5074857;28;20258;-69
2021/04/28 01:22:55;;;;;;;10.60;4.22;;;7.50;76.50;;;8.56;44.24;100671.53;5091427;28;20200;-69
2021/04/28 01:25:25;;;;;;;10.90;4.32;;;7.40;76.50;;;8.55;44.16;100667.25;5075981;28;20192;-70
2021/04/28 01:27:58;;;;;;;12.00;4.18;;;7.40;76.60;;;8.52;44.39;100668.16;5077536;28;20212;-69
2021/04/28 01:30:34;;;;;;;12.30;4.65;;;7.40;76.60;;;8.50;44.24;100669.13;5066672;28;20212;-70
2021/04/28 01:33:02;;;;;;;12.02;4.53;;;7.40;76.70;;;8.51;44.67;100665.59;5072499;28;20207;-70
2021/04/28 01:35:29;;;;;;;12.25;4.47;;;7.40;76.70;;;8.52;44.35;100662.13;5073542;28;20194;-70
2021/04/28 01:37:58;;;;;;;11.88;4.22;;;7.40;76.80;;;8.51;44.21;100665.59;5073957;28;20196;-69
2021/04/28 01:40:26;;;;;;;10.82;3.92;;;7.40;76.80;;;8.52;44.32;100656.91;5075958;28;20282;-69
2021/04/28 01:42:55;;;;;;;11.68;4.20;;;7.30;76.80;;;8.47;44.52;100657.03;5072725;28;20188;-69
2021/04/28 01:45:22;;;;;;;9.95;3.72;;;7.30;76.80;;;8.44;44.64;100648.47;5073762;28;20190;-70
2021/04/28 01:47:50;;;;;;;14.77;4.45;;;7.30;76.90;;;8.40;44.36;100645.09;5071329;28;20841;-70
2021/04/28 01:50:20;;;;;;;11.52;4.43;;;7.20;76.90;;;8.39;44.32;100650.34;5070086;28;20222;-69
2021/04/28 01:52:48;;;;;;;11.60;4.43;;;7.20;76.90;;;8.37;44.73;100646.94;5072970;28;20382;-69
2021/04/28 01:55:19;;;;;;;11.50;4.38;;;7.20;77.00;;;8.34;44.44;100647.03;5067490;28;20214;-69
2021/04/28 01:58:05;;;;;;;11.32;4.68;;;7.20;77.10;;;8.34;44.62;100642.66;5069960;28;20193;-69
2021/04/28 02:00:37;;;;;;;12.98;4.85;;;7.20;77.20;;;8.32;44.77;100643.59;5072870;28;20735;-69
2021/04/28 02:03:04;;;;;;;10.80;4.40;;;7.20;77.20;;;8.29;44.63;100638.50;5075468;28;20200;-69
2021/04/28 02:05:30;;;;;;;13.13;5.00;;;7.10;77.30;;;8.26;44.80;100638.56;5074055;28;20196;-70
2021/04/28 02:07:58;;;;;;;12.38;4.90;;;7.10;77.40;;;8.25;45.02;100632.50;5087093;28;20606;-69
2021/04/28 02:10:26;;;;;;;13.65;4.75;;;7.10;77.50;;;8.26;44.86;100630.75;5073841;28;20214;-69
2021/04/28 02:12:54;;;;;;;12.70;4.63;;;7.00;77.50;;;8.26;44.74;100625.53;5087057;28;20199;-69
2021/04/28 02:15:29;;;;;;;12.90;5.00;;;7.00;77.60;;;8.26;45.04;100622.91;5077726;28;20659;-69
2021/04/28 02:18:05;;;;;;;10.88;4.90;;;7.00;77.60;;;8.23;44.89;100616.06;5073375;28;20354;-70
2021/04/28 02:20:37;;;;;;;12.75;4.25;;;7.00;77.70;;;8.22;44.99;100624.72;5075335;28;20199;-69
2021/04/28 02:23:28;;;;;;;13.02;4.43;;;7.00;77.70;;;8.17;45.07;100613.59;5072356;28;20192;-69
2021/04/28 02:25:56;;;;;;;14.00;4.57;;;7.00;77.70;;;8.12;45.25;100607.66;5070530;28;20279;-69
2021/04/28 02:28:24;;;;;;;13.90;4.75;;;7.00;77.80;;;8.09;45.03;100612.13;5074053;28;20214;-69
2021/04/28 02:31:01;;;;;;;13.63;4.55;;;7.00;77.80;;;8.08;45.16;100615.63;5074650;28;20261;-69
2021/04/28 02:33:28;;;;;;;11.68;4.78;;;6.90;77.80;;;8.09;45.16;100617.34;5074957;28;20192;-69
2021/04/28 02:36:22;;;;;;;13.52;5.07;;;7.00;78.00;;;8.06;45.25;100604.38;5061414;28;20192;-68
2021/04/28 02:39:19;;;;;;;13.00;4.72;;;6.90;78.00;;;8.06;45.17;100604.38;5074133;28;20212;-69
2021/04/28 02:41:49;;;;;;;12.30;4.80;;;6.90;78.00;;;8.03;45.42;100599.25;5075293;28;20203;-69
2021/04/28 02:44:20;;;;;;;13.73;5.20;;;6.90;77.90;;;8.00;45.33;100594.16;5077578;28;20644;-69
2021/04/28 02:46:48;;;;;;;15.55;5.07;;;6.90;78.10;;;7.99;45.50;100598.50;5071866;28;20279;-73
2021/04/28 02:49:17;;;;;;;14.60;5.03;;;6.90;78.20;;;7.98;45.68;100593.34;5076277;28;20204;-70
2021/04/28 02:51:45;;;;;;;12.38;5.38;;;6.90;78.20;;;7.95;45.67;100590.81;5076381;28;20203;-69
2021/04/28 02:54:31;;;;;;;13.50;5.25;;;6.80;78.30;;;7.94;45.49;100589.97;5076566;28;20274;-67
2021/04/28 02:56:59;;;;;;;14.48;5.25;;;6.80;78.40;;;7.92;45.67;100585.72;5073285;28;20731;-69
2021/04/28 02:59:27;;;;;;;13.10;5.22;;;6.80;78.50;;;7.91;45.69;100591.78;5085396;28;20186;-69
2021/04/28 03:01:54;;;;;;;12.70;4.95;;;6.80;78.70;;;7.91;45.60;100592.66;5070808;28;20195;-70
2021/04/28 03:04:21;;;;;;;13.63;4.88;;;6.70;78.60;;;7.88;45.71;100589.28;5072697;28;20207;-70
2021/04/28 03:07:19;;;;;;;13.38;4.95;;;6.70;78.80;;;7.84;46.07;100591.13;5066308;28;20197;-69
2021/04/28 03:09:46;;;;;;;11.85;5.10;;;6.70;78.90;;;7.79;46.19;100589.56;5067776;28;20216;-71
2021/04/28 03:12:15;;;;;;;13.77;5.13;;;6.70;79.00;;;7.77;45.99;100593.97;5073973;28;20195;-69
2021/04/28 03:14:55;;;;;;;13.63;5.47;;;6.70;79.30;;;7.75;46.08;100587.94;5074691;28;20383;-69
2021/04/28 03:17:23;;;;;;;13.90;5.72;;;6.60;79.40;;;7.73;46.13;100585.38;5069903;28;20188;-71
2021/04/28 03:19:55;;;;;;;14.40;5.13;;;6.60;79.50;;;7.70;46.32;100582.00;5072930;28;20219;-70
2021/04/28 03:22:22;;;;;;;14.10;5.28;;;6.60;79.70;;;7.68;46.70;100585.47;5073328;28;20726;-69
2021/04/28 03:24:50;;;;;;;14.15;5.93;;;6.60;79.90;;;7.69;46.86;100586.34;5073175;28;20277;-70
2021/04/28 03:27:20;;;;;;;14.23;5.38;;;6.50;79.90;;;7.65;46.84;100576.94;5061699;28;20196;-71
2021/04/28 03:29:53;;;;;;;11.40;5.07;;;6.50;80.10;;;7.60;46.87;100579.63;5075155;28;20306;-71
2021/04/28 03:32:20;;;;;;;16.55;5.47;;;6.40;80.30;;;7.58;47.21;100586.63;5073103;28;20668;-69
2021/04/28 03:34:53;;;;;;;13.68;5.32;;;6.40;80.60;;;7.54;47.19;100584.16;5072938;28;20225;-69
2021/04/28 03:37:20;;;;;;;14.73;5.63;;;6.40;80.70;;;7.50;47.56;100578.19;5069837;28;20187;-69
2021/04/28 03:39:46;;;;;;;14.88;5.38;;;6.30;81.00;;;7.49;47.63;100576.50;5071513;28;20274;-68
2021/04/28 03:42:13;;;;;;;15.10;5.22;;;6.30;81.10;;;7.45;47.57;100574.84;5071169;28;20225;-69
2021/04/28 03:44:41;;;;;;;14.73;5.65;;;6.30;81.30;;;7.44;47.69;100580.97;5069285;28;20204;-69
2021/04/28 03:47:09;;;;;;;14.40;5.85;;;6.30;81.50;;;7.44;47.77;100580.09;5072377;28;20313;-69
2021/04/28 03:49:38;;;;;;;14.88;5.30;;;6.30;81.60;;;7.43;48.08;100578.41;5073850;28;20244;-70
2021/04/28 03:52:05;;;;;;;15.88;5.57;;;6.20;81.70;;;7.39;47.80;100580.25;5074418;28;20202;-70
2021/04/28 03:54:46;;;;;;;16.85;5.55;;;6.20;81.90;;;7.31;48.29;100574.41;5077461;28;20253;-69
2021/04/28 03:57:13;;;;;;;16.50;5.82;;;6.20;82.10;;;7.32;48.09;100578.69;5076038;28;20196;-69
2021/04/28 03:59:40;;;;;;;16.40;6.03;;;6.20;82.20;;;7.34;48.32;100579.50;5077912;28;20208;-70
2021/04/28 04:02:07;;;;;;;12.68;6.05;;;6.20;82.40;;;7.34;48.15;100576.91;5077129;28;20586;-70
2021/04/28 04:05:03;;;;;;;15.55;6.15;;;6.20;82.50;;;7.33;48.39;100588.19;5072432;28;20621;-69
2021/04/28 04:07:48;;;;;;;17.05;5.50;;;6.10;82.70;;;7.30;48.31;100575.28;5075690;28;20227;-69
2021/04/28 04:10:28;;;;;;;13.48;5.45;;;6.10;82.80;;;7.26;48.70;100584.06;5069501;28;20287;-69
2021/04/28 04:12:55;;;;;;;16.00;6.32;;;6.10;83.00;;;7.27;48.75;100585.75;5074953;28;20193;-69
2021/04/28 04:15:22;;;;;;;19.80;5.95;;;6.10;83.10;;;7.28;48.75;100582.25;5078454;28;20196;-69
2021/04/28 04:17:49;;;;;;;15.05;5.95;;;6.10;83.20;;;7.28;48.83;100587.47;5077811;28;20317;-70
2021/04/28 04:20:21;;;;;;;18.92;6.47;;;6.10;83.40;;;7.32;48.87;100589.09;5064782;28;20203;-69
2021/04/28 04:23:03;;;;;;;16.83;5.68;;;6.10;83.50;;;7.32;48.87;100586.50;5077227;28;20234;-69
2021/04/28 04:25:53;;;;;;;17.83;5.88;;;6.10;83.70;;;7.32;49.05;100586.50;5076916;28;20208;-69
2021/04/28 04:28:42;;;;;;;15.57;6.10;;;6.10;83.80;;;7.29;49.21;100589.19;5077287;28;20294;-69
2021/04/28 04:31:23;;;;;;;20.42;6.18;;;6.10;84.00;;;7.29;48.99;100583.97;5078283;28;20787;-69
2021/04/28 04:34:08;;;;;;;19.30;6.72;;;6.10;84.20;;;7.34;49.49;100589.91;5076593;28;20203;-69
2021/04/28 04:36:53;;;;;;;16.58;5.93;;;6.10;84.40;;;7.35;49.31;100578.59;5077790;28;20667;-69
2021/04/28 04:39:38;;;;;;;18.38;6.50;;;6.10;84.40;;;7.39;49.79;100582.84;5075706;28;20245;-69
2021/04/28 04:42:14;;;;;;;18.83;6.75;;;6.20;84.60;;;7.42;49.20;100584.50;5079656;28;20279;-69
2021/04/28 04:44:46;;;;;;;14.27;6.25;;;6.20;84.50;;;7.46;49.42;100591.34;5074509;28;20235;-70
2021/04/28 04:47:15;;;;;;;16.67;5.88;;;6.30;84.70;;;7.49;49.46;100592.13;5079925;28;20257;-71
2021/04/28 04:49:43;;;;;;;15.55;6.15;;;6.30;84.70;;;7.50;49.36;100596.41;5074292;28;20235;-69
2021/04/28 04:52:10;;;;;;;20.00;6.78;;;6.40;84.70;;;7.56;49.33;100598.00;5064694;28;20195;-68
2021/04/28 04:54:36;;;;;;;17.55;6.53;;;6.40;84.90;;;7.56;49.67;100593.66;5067098;28;20196;-68
2021/04/28 04:57:03;;;;;;;15.20;6.00;;;6.50;84.90;;;7.60;49.31;100594.44;5070165;28;20189;-68
2021/04/28 04:59:30;;;;;;;16.38;6.88;;;6.50;85.10;;;7.61;49.35;100591.78;5070529;28;20704;-68
2021/04/28 05:01:56;;;;;;;18.58;6.57;;;6.50;84.90;;;7.65;49.43;100592.56;5068513;28;20301;-68
2021/04/28 05:04:23;;;;;;;17.77;7.32;;;6.60;85.00;;;7.63;49.56;100595.16;5073765;28;20827;-68
2021/04/28 05:06:52;;;;;;;16.48;6.68;;;6.50;85.00;;;7.62;49.25;100593.47;5069048;28;20273;-68
2021/04/28 05:09:19;;;;;;;16.95;7.00;;;6.50;84.80;;;7.65;49.32;100588.19;5067528;28;20600;-69
2021/04/28 05:11:45;;;;;;;16.50;6.55;;;6.60;84.90;;;7.65;49.57;100596.00;5069209;28;20207;-68
2021/04/28 05:14:12;;;;;;;14.93;6.40;;;6.50;84.90;;;7.64;49.33;100583.88;5072039;28;20223;-70
2021/04/28 05:16:38;;;;;;;17.42;6.82;;;6.50;84.80;;;7.64;49.34;100575.19;5071474;28;20188;-68
2021/04/28 05:19:04;;;;;;;16.75;6.90;;;6.50;84.90;;;7.65;49.36;100582.97;5070808;28;20188;-69
2021/04/28 05:21:31;;;;;;;20.27;7.45;;;6.50;84.80;;;7.67;49.12;100584.69;5069567;28;20216;-69
2021/04/28 05:24:01;;;;;;;17.90;7.05;;;6.60;85.00;;;7.74;49.54;100583.63;5070260;28;20665;-70
2021/04/28 05:26:35;;;;;;;18.38;6.82;;;6.60;85.30;;;7.79;49.37;100579.16;5079712;28;20183;-69
2021/04/28 05:29:02;;;;;;;17.27;7.15;;;6.70;85.10;;;7.85;48.95;100589.38;5081446;28;20200;-68
2021/04/28 05:31:28;;;;;;;18.40;7.28;;;6.80;85.40;;;7.89;49.19;100584.03;5080272;28;20234;-70
2021/04/28 05:33:55;;;;;;;19.65;7.03;;;6.80;85.70;;;7.95;49.69;100588.22;5076002;28;20193;-70
2021/04/28 05:36:21;;;;;;;20.17;7.55;;;6.90;85.30;;;7.92;49.12;100593.53;5080955;28;20275;-70
2021/04/28 05:38:48;;;;;;;16.92;7.45;;;6.90;84.90;;;7.92;49.41;100593.53;5076488;28;21031;-70
2021/04/28 05:41:14;;;;;;;18.83;6.93;;;6.90;85.00;;;7.91;48.94;100586.59;5079832;28;20210;-69
2021/04/28 05:43:40;;;;;;;16.83;7.20;;;6.90;84.80;;;7.91;48.90;100578.78;5077029;28;20196;-70
2021/04/28 05:46:08;;;;;;;17.35;7.05;;;6.90;84.70;;;7.94;49.32;100586.53;5070940;28;20192;-70
2021/04/28 05:48:35;;;;;;;20.20;7.10;;;6.90;84.70;;;7.97;49.25;100584.66;5079120;28;20208;-70
2021/04/28 05:51:01;;;;;;;19.65;7.75;;;6.90;84.70;;;8.03;49.26;100586.22;5077344;28;20217;-69
2021/04/28 05:53:27;;;;;;;19.52;7.75;;;7.00;84.70;;;8.05;48.72;100587.06;5077551;28;20705;-70
2021/04/28 05:55:54;;;;;;;22.08;7.70;;;7.00;84.70;;;8.10;48.88;100586.03;5078626;28;20192;-70
2021/04/28 05:58:20;;;;;;;17.17;7.75;;;7.10;84.60;;;8.13;48.84;100585.06;5072516;28;20192;-70
2021/04/28 06:00:47;;;;;;;17.25;7.32;;;7.10;84.60;;;8.10;48.82;100596.44;5071908;28;20222;-70
2021/04/28 06:03:13;;;;;;;16.90;7.25;;;7.10;84.50;;;8.15;48.93;100588.47;5075863;28;20200;-68
2021/04/28 06:05:39;;;;;;;18.30;6.45;;;7.20;84.80;;;8.22;48.87;100590.00;5071157;28;20188;-69
2021/04/28 06:08:06;;;;;;;21.38;7.57;;;7.20;84.60;;;8.24;48.66;100596.06;5070455;28;20254;-70
2021/04/28 06:10:33;;;;;;;19.38;6.95;;;7.20;84.40;;;8.30;48.57;100582.84;5066761;28;20215;-69
2021/04/28 06:13:00;;;;;;;15.57;6.88;;;7.30;84.40;;;8.35;48.47;100581.81;5075306;28;20245;-69
2021/04/28 06:15:26;;;;;;;19.90;7.65;;;7.40;84.10;;;8.38;48.38;100579.09;5068845;28;20353;-70
2021/04/28 06:17:53;;;;;;;19.83;7.45;;;7.40;84.00;;;8.44;48.20;100578.06;5076385;28;20777;-70
2021/04/28 06:20:19;;;;;;;17.58;7.35;;;7.50;83.80;;;8.50;48.25;100580.47;5075721;28;20215;-70
2021/04/28 06:22:46;;;;;;;21.27;8.10;;;7.60;83.90;;;8.56;48.14;100577.66;5078053;28;20184;-69
2021/04/28 06:25:14;;;;;;;20.33;7.95;;;7.60;83.90;;;8.62;47.83;100569.66;5073062;28;20189;-68
2021/04/28 06:27:41;;;;;;;18.15;7.07;;;7.70;83.80;;;8.70;48.01;100563.31;5076933;28;20212;-69
2021/04/28 06:30:10;;;;;;;19.08;7.32;;;7.80;83.60;;;8.78;47.57;100563.91;5075560;28;20277;-69
2021/04/28 06:32:37;;;;;;;17.92;7.50;;;7.90;83.30;;;8.86;47.56;100555.81;5072959;28;20210;-69
2021/04/28 06:35:06;;;;;;;16.00;7.18;;;8.00;83.30;;;8.97;47.66;100558.91;5067573;28;20189;-71
2021/04/28 06:37:32;;;;;;;20.38;7.93;;;8.10;83.00;;;9.03;47.38;100565.66;5067667;28;20654;-70
2021/04/28 06:39:59;;;;;;;18.40;7.75;;;8.20;82.90;;;9.09;47.47;100566.34;5065836;28;20203;-69
2021/04/28 06:42:25;;;;;;;21.38;7.63;;;8.30;82.70;;;9.17;47.05;100558.22;5072889;28;20188;-68
2021/04/28 06:44:51;;;;;;;19.63;7.57;;;8.40;82.10;;;9.17;46.89;100561.72;5071544;28;20197;-69
2021/04/28 06:47:19;;;;;;;18.75;7.30;;;8.40;82.10;;;9.22;47.17;100570.22;5061165;28;20200;-67
2021/04/28 06:49:45;;;;;;;20.42;8.07;;;8.40;82.20;;;9.30;46.98;100567.34;5069797;28;20282;-69
2021/04/28 06:52:11;;;;;;;19.35;7.45;;;8.50;82.10;;;9.41;46.78;100563.44;5064649;28;20200;-69
2021/04/28 06:54:37;;;;;;;19.58;7.53;;;8.60;82.10;;;9.50;46.55;100565.75;5064290;28;20210;-69
2021/04/28 06:57:05;;;;;;;18.77;7.07;;;8.70;81.70;;;9.62;46.13;100561.84;5062062;28;20199;-69
2021/04/28 06:59:31;;;;;;;19.02;7.47;;;8.80;81.50;;;9.65;46.02;100570.41;5065404;28;20204;-68
2021/04/28 07:01:57;;;;;;;19.23;7.53;;;8.80;81.10;;;9.70;45.98;100560.66;5079452;28;20207;-68
2021/04/28 07:04:24;;;;;;;17.88;7.65;;;8.90;81.00;;;9.76;45.97;100560.41;5077242;28;20771;-70
2021/04/28 07:06:51;;;;;;;20.38;7.40;;;9.00;81.00;;;9.88;45.81;100549.50;5058126;28;20189;-68
2021/04/28 07:09:17;;;;;;;18.88;7.38;;;9.10;80.90;;;10.01;45.69;100561.19;5071769;28;20215;-68
2021/04/28 07:11:44;;;;;;;18.67;7.20;;;9.30;81.10;;;10.11;45.56;100557.34;5077179;28;20192;-70
2021/04/28 07:14:11;;;;;;;16.80;7.75;;;9.40;80.20;;;10.19;44.87;100556.22;5079262;28;20184;-66
2021/04/28 07:16:37;;;;;;;19.65;8.13;;;9.40;79.70;;;10.26;44.80;100549.84;5077771;28;20195;-67
2021/04/28 07:19:04;;;;;;;18.13;7.35;;;9.50;79.70;;;10.37;44.63;100538.06;5076559;28;20203;-68
2021/04/28 07:21:31;;;;;;;20.30;7.80;;;9.60;79.40;;;10.51;44.50;100537.50;5074766;28;20211;-68
2021/04/28 07:24:00;;;;;;;19.98;7.57;;;9.70;79.20;;;10.58;44.14;100537.22;5079170;28;20240;-69
2021/04/28 07:26:26;;;;;;;17.58;7.63;;;9.80;80.10;;;10.70;44.36;100530.63;5076662;28;20203;-68
2021/04/28 07:28:52;;;;;;;17.63;8.18;;;10.00;78.70;;;10.84;43.83;100533.50;5073959;28;20215;-67
2021/04/28 07:31:20;;;;;;;17.98;7.50;;;10.20;78.00;;;10.89;43.27;100536.78;5071454;28;20212;-65
2021/04/28 07:33:47;;;;;;;20.85;7.75;;;10.30;77.80;;;10.95;43.40;100536.53;5064254;28;20203;-67
2021/04/28 07:36:14;;;;;;;17.33;7.90;;;10.30;78.00;;;11.03;43.38;100540.53;5065383;28;20199;-66
2021/04/28 07:38:42;;;;;;;16.98;7.13;;;10.40;77.30;;;11.08;42.81;100532.47;5065386;28;20272;-69
2021/04/28 07:41:08;;;;;;;17.20;7.05;;;10.40;77.20;;;11.23;42.90;100529.19;5065305;28;20715;-70
2021/04/28 07:43:35;;;;;;;19.75;7.72;;;10.50;76.90;;;11.42;42.73;100532.69;5066935;28;20218;-67
2021/04/28 07:46:01;;;;;;;19.42;7.55;;;10.70;76.60;;;11.56;42.29;100530.34;5071491;28;20199;-65
2021/04/28 07:48:28;;;;;;;19.65;8.98;;;10.90;76.30;;;11.72;41.89;100535.78;5070749;28;20211;-67
2021/04/28 07:50:54;;;;;;;19.55;8.02;;;11.10;75.90;;;11.86;41.64;100533.38;5076146;28;20228;-67
2021/04/28 07:53:20;;;;;;;18.10;7.30;;;11.30;75.50;;;11.89;41.48;100531.47;5075667;28;20192;-67
2021/04/28 07:55:48;;;;;;;19.70;8.20;;;11.30;75.10;;;11.98;41.23;100525.81;5074746;28;20196;-69
2021/04/28 07:58:15;;;;;;;18.13;7.32;;;11.40;74.90;;;12.06;40.97;100526.28;5070006;28;20192;-67
2021/04/28 08:00:42;;;;;;;23.80;8.23;;;11.50;74.60;;;12.19;41.00;100519.53;5070008;28;20222;-68
2021/04/28 08:03:08;;;;;;;18.33;7.72;;;11.70;74.40;;;12.32;41.00;100512.78;5067454;28;20618;-67
2021/04/28 08:05:35;;;;;;;19.20;7.82;;;11.90;75.10;;;12.43;40.81;100501.78;5070435;28;20200;-66
2021/04/28 08:08:01;;;;;;;21.05;8.20;;;12.00;73.70;;;12.64;40.42;100506.81;5063688;28;20196;-68
2021/04/28 08:10:28;;;;;;;20.55;8.05;;;12.30;73.10;;;12.79;40.19;100501.75;5067566;28;20224;-68
2021/04/28 08:12:55;;;;;;;19.25;7.88;;;12.40;72.80;;;12.83;40.12;100498.88;5072267;28;20196;-68
2021/04/28 08:15:22;;;;;;;19.92;8.23;;;12.40;72.50;;;12.91;39.82;100491.44;5078876;28;20207;-68
2021/04/28 08:17:48;;;;;;;21.25;8.40;;;12.50;72.60;;;12.95;39.76;100492.16;5074816;28;20221;-70
2021/04/28 08:20:16;;;;;;;20.60;8.18;;;12.50;72.80;;;12.92;39.64;100492.31;5070118;28;20219;-66
2021/04/28 08:22:44;;;;;;;17.70;8.40;;;12.50;72.30;;;12.90;39.77;100491.53;5074778;28;20193;-67
2021/04/28 08:25:14;;;;;;;19.08;7.57;;;12.40;72.50;;;12.93;39.97;100483.53;5078582;28;20192;-67
2021/04/28 08:27:40;;;;;;;19.33;7.57;;;12.40;72.70;;;12.98;39.43;100482.34;5071542;28;20218;-66
2021/04/28 08:30:11;;;;;;;19.70;8.23;;;12.40;71.90;;;13.02;39.35;100483.06;5071063;28;20246;-68
2021/04/28 08:32:38;;;;;;;17.88;7.40;;;12.40;72.20;;;13.14;39.59;100490.31;5066146;28;20184;-67
2021/04/28 08:35:07;;;;;;;20.65;8.02;;;12.50;73.00;;;13.20;39.36;100487.38;5072768;28;20543;-67
2021/04/28 08:37:34;;;;;;;20.42;7.97;;;12.70;72.20;;;13.16;39.15;100489.31;5075931;28;20318;-69
2021/04/28 08:40:00;;;;;;;17.95;7.55;;;12.60;71.40;;;13.16;39.37;100488.47;5070612;28;21993;-68
2021/04/28 08:42:26;;;;;;;17.83;7.88;;;12.60;72.70;;;13.25;39.31;100483.56;5074366;28;20196;-69
2021/04/28 08:44:53;;;;;;;21.58;7.90;;;12.80;72.30;;;13.37;38.98;100487.34;5070882;28;20184;-67
2021/04/28 08:47:21;;;;;;;21.27;8.70;;;12.90;71.40;;;13.41;38.63;100478.38;5068529;28;20643;-66
2021/04/28 08:49:47;;;;;;;21.88;8.40;;;12.90;71.10;;;13.50;38.59;100491.88;5075330;28;20216;-67
2021/04/28 08:52:14;;;;;;;17.77;7.53;;;13.00;70.90;;;13.54;38.30;100485.53;5072292;28;20192;-67
2021/04/28 08:54:41;;;;;;;19.20;7.95;;;13.00;70.30;;;13.55;38.35;100483.72;5089286;28;20548;-69
2021/04/28 08:57:10;;;;;;;18.35;7.80;;;13.00;70.80;;;13.64;38.16;100483.25;5074848;28;20205;-67
2021/04/28 08:59:37;;;;;;;18.00;8.27;;;13.10;70.50;;;13.66;38.09;100484.03;5072999;28;20307;-70
2021/04/28 09:02:21;;;;;;;18.10;7.40;;;13.10;69.80;;;13.71;37.92;100476.72;5067282;28;20204;-65
2021/04/28 09:05:11;;;;;;;19.88;8.15;;;13.20;70.00;;;13.81;37.72;100475.28;5067830;28;20287;-66
2021/04/28 09:07:38;;;;;;;17.92;7.75;;;13.30;69.70;;;13.86;37.57;100479.34;5067606;28;20205;-67
2021/04/28 09:10:08;;;;;;;19.30;7.72;;;13.30;69.60;;;13.91;37.68;100473.00;5068479;28;20219;-67
2021/04/28 09:12:35;;;;;;;19.38;7.90;;;13.40;69.50;;;13.94;37.80;100467.56;5060755;28;20291;-66
2021/04/28 09:15:03;;;;;;;21.30;8.90;;;13.40;69.50;;;13.99;37.57;100465.53;5067640;28;20208;-69
2021/04/28 09:17:29;;;;;;;17.27;7.90;;;13.40;69.40;;;14.03;37.21;100465.28;5067039;28;20221;-67
2021/04/28 09:20:18;;;;;;;17.95;7.63;;;13.50;69.10;;;14.15;37.19;100445.34;5075436;28;20216;-66
2021/04/28 09:23:11;;;;;;;18.45;9.10;;;13.60;68.80;;;14.32;37.05;100451.34;5074467;28;20188;-67
2021/04/28 09:26:16;;;;;;;19.67;8.30;;;13.80;68.60;;;14.46;36.29;100443.53;5071757;28;20547;-68
2021/04/28 09:29:02;;;;;;;16.92;7.40;;;13.90;68.00;;;14.57;36.47;100448.13;5074940;28;20210;-66
2021/04/28 09:31:29;;;;;;;19.23;7.85;;;14.00;67.40;;;14.62;35.85;100446.94;5076163;28;20208;-66
2021/04/28 09:33:59;;;;;;;17.63;8.23;;;14.10;67.40;;;14.74;35.93;100445.38;5072450;28;20256;-66
2021/04/28 09:36:31;;;;;;;15.48;7.38;;;14.20;67.30;;;14.82;35.90;100446.63;5072984;28;20199;-66
2021/04/28 09:39:02;;;;;;;17.30;7.68;;;14.30;67.20;;;14.86;35.78;100444.66;5078501;28;20193;-67
2021/04/28 09:41:38;;;;;;;20.63;7.82;;;14.30;66.60;;;14.90;35.67;100447.00;5073667;28;20219;-67
2021/04/28 09:44:31;;;;;;;18.70;8.23;;;14.40;67.10;;;14.93;36.00;100443.34;5075134;28;20247;-66
2021/04/28 09:47:05;;;;;;;18.42;7.95;;;14.40;66.90;;;14.94;36.10;100438.00;5072827;28;20215;-67
2021/04/28 09:49:52;;;;;;;22.70;8.65;;;14.40;67.20;;;15.04;36.30;100439.13;5070883;28;20212;-67
2021/04/28 09:52:23;;;;;;;17.67;7.57;;;14.50;68.30;;;15.10;36.37;100444.03;5072667;28;20199;-67
2021/04/28 09:54:52;;;;;;;17.58;7.95;;;14.60;67.60;;;15.10;36.45;100436.13;5075709;28;20196;-65
2021/04/28 09:57:33;;;;;;;19.38;8.73;;;14.60;67.90;;;15.20;36.36;100425.03;5067038;28;20192;-66
2021/04/28 10:00:00;;;;;;;23.15;9.32;;;14.70;67.90;;;15.28;36.39;100422.75;5075434;28;20338;-67
2021/04/28 10:02:29;;;;;;;22.33;8.48;;;14.80;67.80;;;15.34;36.73;100417.94;5075329;28;20260;-67
2021/04/28 10:05:22;;;;;;;19.38;8.27;;;14.80;68.40;;;15.46;36.52;100411.09;5074506;28;20258;-67
2021/04/28 10:07:50;;;;;;;18.45;8.10;;;15.00;68.20;;;15.55;36.16;100416.66;5074785;28;20204;-67
2021/04/28 10:10:20;;;;;;;19.73;8.90;;;15.10;67.70;;;15.62;36.16;100412.69;5064461;28;20302;-67
2021/04/28 10:12:47;;;;;;;18.88;8.27;;;15.10;67.70;;;15.65;36.34;100411.66;5071623;28;20683;-70
2021/04/28 10:15:14;;;;;;;18.23;8.73;;;15.20;68.70;;;15.74;36.90;100413.72;5072099;28;20200;-67
2021/04/28 10:17:41;;;;;;;19.35;8.65;;;15.30;68.20;;;15.81;35.96;100394.72;5074668;28;20211;-70
2021/04/28 10:20:09;;;;;;;21.98;8.40;;;15.40;67.50;;;15.93;35.84;100401.88;5071296;28;20588;-68
2021/04/28 10:22:36;;;;;;;17.70;9.05;;;15.50;66.90;;;16.04;35.63;100398.53;5069124;28;20271;-69
2021/04/28 10:25:08;;;;;;;22.27;8.90;;;15.60;66.70;;;16.07;35.60;100409.75;5062147;28;20204;-70
2021/04/28 10:27:37;;;;;;;20.98;8.85;;;15.60;66.60;;;16.08;35.41;100400.00;5072551;28;20296;-69